createdAt,value
2022-08-22T06:14:04.936Z,1009.70
2022-08-22T06:24:04.739Z,1009.68
2022-08-22T06:34:04.742Z,1009.84
2022-08-22T06:44:04.876Z,1009.76
2022-08-22T06:54:04.719Z,1009.78
2022-08-22T07:04:04.903Z,1009.65
2022-08-22T07:14:04.947Z,1009.70
2022-08-22T07:24:05.010Z,1009.75
2022-08-22T07:34:04.963Z,1009.75
2022-08-22T07:44:05.203Z,1009.73
2022-08-22T07:54:05.083Z,1009.86
2022-08-22T08:04:04.989Z,1009.82
2022-08-22T08:14:05.021Z,1009.78
2022-08-22T08:24:04.926Z,1009.78
2022-08-22T08:34:05.115Z,1009.68
2022-08-22T08:44:05.075Z,1009.66
2022-08-22T08:54:05.055Z,1009.52
2022-08-22T09:04:05.083Z,1009.57
2022-08-22T09:14:05.076Z,1009.48
2022-08-22T09:24:05.293Z,1009.36
2022-08-22T09:40:15.704Z,1009.39
2022-08-22T09:44:05.176Z,1009.29
2022-08-22T09:54:05.152Z,1009.07
2022-08-22T10:04:05.246Z,1009.06
2022-08-22T10:14:05.215Z,1008.95
2022-08-22T10:24:07.288Z,1008.92
2022-08-22T10:34:05.158Z,1008.82
2022-08-22T10:44:05.196Z,1008.68
2022-08-22T10:54:05.425Z,1008.66
2022-08-22T11:04:05.274Z,1008.57
2022-08-22T11:14:05.466Z,1008.54
2022-08-22T11:24:05.376Z,1008.56
2022-08-22T11:34:05.816Z,1008.49
2022-08-22T11:44:05.363Z,1008.38
2022-08-22T11:54:05.463Z,1008.37
2022-08-22T12:04:05.575Z,1008.37
2022-08-22T12:14:06.665Z,1008.42
2022-08-22T12:24:05.881Z,1008.24
2022-08-22T12:34:06.549Z,1008.36
2022-08-22T12:44:05.525Z,1008.09
2022-08-22T12:54:05.537Z,1008.02
2022-08-22T13:04:05.588Z,1007.99
2022-08-22T13:14:05.951Z,1007.90
2022-08-22T13:24:05.671Z,1007.86
2022-08-22T13:34:05.612Z,1007.79
2022-08-22T13:44:05.678Z,1007.77
2022-08-22T13:54:11.281Z,1007.71
2022-08-22T14:04:05.550Z,1007.61
2022-08-22T14:14:05.457Z,1007.60
2022-08-22T14:24:05.576Z,1007.46
2022-08-22T14:34:05.584Z,1007.39
2022-08-22T14:44:05.802Z,1007.39
2022-08-22T14:54:05.886Z,1007.34
2022-08-22T15:04:05.710Z,1007.28
2022-08-22T15:14:05.601Z,1007.30
2022-08-22T15:24:05.755Z,1007.16
2022-08-22T15:34:05.881Z,1007.08
2022-08-22T15:44:05.848Z,1006.98
2022-08-22T15:54:16.397Z,1006.99
2022-08-22T16:04:05.663Z,1006.90
2022-08-22T16:14:05.794Z,1006.81
2022-08-22T16:24:05.592Z,1006.81
2022-08-22T16:34:05.780Z,1006.81
2022-08-22T16:44:05.817Z,1006.77
2022-08-22T16:54:05.885Z,1006.90
2022-08-22T17:04:05.953Z,1006.78
2022-08-22T17:14:06.083Z,1006.90
2022-08-22T17:24:05.845Z,1006.83
2022-08-22T17:34:05.768Z,1006.93
2022-08-22T17:44:06.092Z,1007.02
2022-08-22T17:54:05.778Z,1007.08
2022-08-22T18:04:06.042Z,1007.19
2022-08-22T18:14:05.969Z,1007.30
2022-08-22T18:24:06.033Z,1007.28
2022-08-22T18:34:05.834Z,1007.55
2022-08-22T18:44:05.710Z,1007.63
2022-08-22T18:54:05.952Z,1007.80
2022-08-22T19:04:06.101Z,1007.90
2022-08-22T19:14:06.337Z,1008.00
